Time,TemperatureF,DewpointF,PressureIn,WindDirection,WindDirectionDegrees,WindSpeedMPH,WindSpeedGustMPH,Humidity,HourlyPrecipIn,Conditions,Clouds,dailyrainin,SoftwareType,DateUTC
2013-05-30 00:00:00,64.7,62.0,30.35,SSW,202,0.0,1.0,91,0.00,,,0.00,VWS V14.01,2013-05-30 04:00:00,
2013-05-30 00:30:00,64.5,62.4,30.35,SSW,202,0.0,0.0,93,0.00,,,0.00,VWS V14.01,2013-05-30 04:30:00,
2013-05-30 01:00:00,64.6,62.8,30.35,SSW,202,0.0,1.0,94,0.00,,,0.00,VWS V14.01,2013-05-30 05:00:00,
2013-05-30 01:30:00,64.8,63.0,30.36,SSW,202,0.0,2.0,94,0.00,,,0.00,VWS V14.01,2013-05-30 05:30:00,
2013-05-30 02:00:00,64.9,63.1,30.36,SSW,202,0.0,2.0,94,0.00,,,0.00,VWS V14.01,2013-05-30 06:00:00,
2013-05-30 02:30:00,64.9,63.1,30.36,SSW,202,0.0,2.0,94,0.00,,,0.00,VWS V14.01,2013-05-30 06:30:00,
2013-05-30 03:00:00,64.8,63.0,30.35,SSW,202,0.0,3.0,94,0.00,,,0.00,VWS V14.01,2013-05-30 07:00:00,
2013-05-30 03:30:00,64.4,62.6,30.36,SSW,202,0.0,1.0,94,0.00,,,0.00,VWS V14.01,2013-05-30 07:30:00,
2013-05-30 04:00:00,63.5,61.4,30.36,SSW,202,0.0,0.0,93,0.00,,,0.00,VWS V14.01,2013-05-30 08:00:00,
2013-05-30 04:30:00,62.6,60.5,30.36,SSW,202,0.0,0.0,93,0.00,,,0.00,VWS V14.01,2013-05-30 08:30:00,
2013-05-30 05:00:00,61.7,59.7,30.38,SSW,202,0.0,0.0,93,0.00,,,0.00,VWS V14.01,2013-05-30 09:00:00,
2013-05-30 05:30:00,60.9,58.9,30.39,SSW,202,0.0,0.0,93,0.00,,,0.00,VWS V14.01,2013-05-30 09:30:00,
2013-05-30 06:00:00,60.2,58.5,30.40,SSW,202,0.0,0.0,94,0.00,,,0.00,VWS V14.01,2013-05-30 10:00:00,
2013-05-30 06:30:00,59.6,57.9,30.40,SSW,202,0.0,0.0,94,0.00,,,0.00,VWS V14.01,2013-05-30 10:30:00,
2013-05-30 07:00:00,60.1,58.7,30.41,SSW,202,0.0,0.0,95,0.00,,,0.00,VWS V14.01,2013-05-30 11:00:00,
2013-05-30 07:30:00,61.9,61.0,30.41,SSW,202,0.0,1.0,97,0.00,,,0.00,VWS V14.01,2013-05-30 11:30:00,
2013-05-30 08:00:00,65.6,65.0,30.42,SSW,202,0.0,3.0,98,0.00,,,0.00,VWS V14.01,2013-05-30 12:00:00,
2013-05-30 08:30:00,67.9,66.7,30.42,NW,315,1.0,9.0,96,0.00,,,0.00,VWS V14.01,2013-05-30 12:30:00,
2013-05-30 09:00:00,71.5,66.8,30.42,South,180,0.0,4.0,85,0.00,,,0.00,VWS V14.01,2013-05-30 13:00:00,
2013-05-30 09:30:00,73.6,67.1,30.42,SSW,202,1.0,5.0,80,0.00,,,0.00,VWS V14.01,2013-05-30 13:30:00,
2013-05-30 10:00:00,75.5,67.8,30.42,SSW,202,1.0,7.0,77,0.00,,,0.00,VWS V14.01,2013-05-30 14:00:00,
2013-05-30 10:30:00,76.8,67.9,30.42,SE,135,2.0,7.0,74,0.00,,,0.00,VWS V14.01,2013-05-30 14:30:00,
2013-05-30 11:00:00,77.9,68.2,30.42,SW,225,2.0,7.0,72,0.00,,,0.00,VWS V14.01,2013-05-30 15:00:00,
2013-05-30 11:30:00,79.7,69.9,30.42,NW,315,0.0,4.0,72,0.00,,,0.00,VWS V14.01,2013-05-30 15:30:00,
2013-05-30 12:00:00,80.3,70.1,30.42,SW,225,1.0,6.0,71,0.00,,,0.00,VWS V14.01,2013-05-30 16:00:00,
2013-05-30 12:30:00,80.3,69.2,30.41,SSW,202,1.0,7.0,69,0.00,,,0.00,VWS V14.01,2013-05-30 16:30:00,
2013-05-30 13:00:00,80.9,68.9,30.39,SSW,202,2.0,9.0,67,0.00,,,0.00,VWS V14.01,2013-05-30 17:00:00,
2013-05-30 13:30:00,81.8,69.3,30.38,SSE,158,2.0,7.0,66,0.00,,,0.00,VWS V14.01,2013-05-30 17:30:00,
2013-05-30 14:00:00,82.4,69.9,30.37,SW,225,1.0,7.0,66,0.00,,,0.00,VWS V14.01,2013-05-30 18:00:00,
2013-05-30 14:30:00,83.6,68.7,30.37,North,0,1.0,6.0,61,0.00,,,0.00,VWS V14.01,2013-05-30 18:30:00,
2013-05-30 15:00:00,83.7,68.3,30.36,SSW,202,1.0,6.0,60,0.00,,,0.00,VWS V14.01,2013-05-30 19:00:00,
2013-05-30 15:30:00,84.2,67.8,30.35,SW,225,0.0,6.0,58,0.00,,,0.00,VWS V14.01,2013-05-30 19:30:00,
2013-05-30 16:00:00,84.5,68.6,30.34,SW,225,0.0,6.0,59,0.00,,,0.00,VWS V14.01,2013-05-30 20:00:00,
2013-05-30 16:30:00,84.8,67.9,30.34,SSW,202,0.0,6.0,57,0.00,,,0.00,VWS V14.01,2013-05-30 20:30:00,
2013-05-30 17:00:00,84.9,66.9,30.34,SW,225,0.0,6.0,55,0.00,,,0.00,VWS V14.01,2013-05-30 21:00:00,
2013-05-30 17:30:00,84.5,67.1,30.34,WSW,248,0.0,5.0,56,0.00,,,0.00,VWS V14.01,2013-05-30 21:30:00,
2013-05-30 18:00:00,83.5,65.7,30.34,SW,225,1.0,7.0,55,0.00,,,0.00,VWS V14.01,2013-05-30 22:00:00,
2013-05-30 18:30:00,82.6,64.8,30.34,SW,225,1.0,5.0,55,0.00,,,0.00,VWS V14.01,2013-05-30 22:30:00,
2013-05-30 19:00:00,81.3,64.6,30.34,WSW,248,1.0,5.0,57,0.00,,,0.00,VWS V14.01,2013-05-30 23:00:00,
2013-05-30 19:30:00,79.7,66.0,30.34,SW,225,0.0,4.0,63,0.00,,,0.00,VWS V14.01,2013-05-30 23:30:00,
2013-05-30 20:00:00,77.0,66.1,30.34,SW,225,0.0,0.0,69,0.00,,,0.00,VWS V14.01,2013-05-31 00:00:00,
2013-05-30 20:30:00,73.8,64.6,30.33,SW,225,0.0,0.0,73,0.00,,,0.00,VWS V14.01,2013-05-31 00:30:00,
2013-05-30 21:00:00,71.0,64.2,30.33,SW,225,0.0,0.0,79,0.00,,,0.00,VWS V14.01,2013-05-31 01:00:00,
2013-05-30 21:30:00,69.0,63.6,30.34,SW,225,0.0,0.0,83,0.00,,,0.00,VWS V14.01,2013-05-31 01:30:00,
2013-05-30 22:00:00,67.5,63.2,30.35,SW,225,0.0,0.0,86,0.00,,,0.00,VWS V14.01,2013-05-31 02:00:00,
2013-05-30 22:30:00,66.3,62.6,30.35,SW,225,0.0,0.0,88,0.00,,,0.00,VWS V14.01,2013-05-31 02:30:00,
2013-05-30 23:00:00,65.4,62.1,30.35,SW,225,0.0,0.0,89,0.00,,,0.00,VWS V14.01,2013-05-31 03:00:00,
2013-05-30 23:30:00,64.7,61.7,30.35,SW,225,0.0,0.0,90,0.00,,,0.00,VWS V14.01,2013-05-31 03:30:00,